»·PEaware :: N1051M KMYF-KLGB

N1051M :: KMYF-KLGB

FLIGHT INFORMATION

Flight Status: Arrived
Operator: Privately registered:
United States
More flights under this callsign
Pilot: Shuai W. (12474)
Aircraft: CESSNA 172 SKYHAWK
(C172)
More flights by this aircraft type
Origin: KMYF Montgomery
United States
Destination: KLGB Long Beach
United States
More flights between these airports :: More routes between these airports
Route: OCN V23 SLI
File this flight plan on PilotEdge
Remarks:
Altitude:
(Current/Filed)
6,000ft
Speed:
(Current/Filed)
100kts
Departed: 29-Aug-19 02:49 PM
Arrived: 29-Aug-19 03:36 PM
Distance/Time
Traveled:
78nm/0:46
Distance/Time
To Go:
Arrived

Flight Plot

Page will automatically refresh every two minutes.


Map Options




Map Legend


Flown Route
Filed Route
Departure Airport
Arrival Airport
Navaid (VOR, NDB)
Fix

Horizontal Profiles

Position Reports

Time Latitude Longitude Heading Altitude Ground
Speed
29-Aug-19 14:23 32.814013 -117.142956 335 415ft 0kts
29-Aug-19 14:24 32.814013 -117.142956 335 415ft 0kts
29-Aug-19 14:25 32.814013 -117.142956 335 415ft 0kts
29-Aug-19 14:26 32.814013 -117.142956 335 415ft 0kts
29-Aug-19 14:27 32.814013 -117.142956 335 415ft 0kts
29-Aug-19 14:28 32.814013 -117.142956 335 415ft 0kts
29-Aug-19 14:29 32.814013 -117.142956 335 415ft 0kts
29-Aug-19 14:30 32.814013 -117.142956 335 415ft 0kts
29-Aug-19 14:30 32.814013 -117.142956 335 415ft 0kts
29-Aug-19 14:32 32.814013 -117.142956 335 415ft 0kts
29-Aug-19 14:32 32.814013 -117.142956 335 415ft 0kts
29-Aug-19 14:34 32.814013 -117.142956 335 415ft 0kts
29-Aug-19 14:34 32.814013 -117.142956 335 415ft 0kts
29-Aug-19 14:35 32.814013 -117.142956 335 415ft 0kts
29-Aug-19 14:37 32.814013 -117.142956 335 415ft 0kts
29-Aug-19 14:37 32.814618 -117.142221 68 416ft 2kts
29-Aug-19 14:38 32.813803 -117.139326 114 416ft 12kts
29-Aug-19 14:39 32.812704 -117.136515 114 415ft 5kts
29-Aug-19 14:40 32.811959 -117.134623 115 416ft 9kts
29-Aug-19 14:41 32.811765 -117.131616 48 415ft 7kts
29-Aug-19 14:42 32.812057 -117.131412 25 415ft 0kts
29-Aug-19 14:43 32.812057 -117.131412 25 415ft 0kts
29-Aug-19 14:44 32.812057 -117.131412 25 415ft 0kts
29-Aug-19 14:45 32.812057 -117.131412 25 415ft 0kts
29-Aug-19 14:46 32.812202 -117.131340 21 415ft 6kts
29-Aug-19 14:47 32.813774 -117.133545 294 416ft 20kts
29-Aug-19 14:48 32.821346 -117.151203 295 976ft 75kts
29-Aug-19 14:49 32.824781 -117.176871 277 1850ft 83kts
29-Aug-19 14:50 32.828198 -117.204246 279 2721ft 81kts
29-Aug-19 14:51 32.845441 -117.219933 328 3536ft 84kts
29-Aug-19 14:52 32.868464 -117.235990 328 4063ft 101kts
29-Aug-19 14:53 32.893249 -117.253271 328 4645ft 98kts
29-Aug-19 14:54 32.915675 -117.268059 330 5424ft 87kts
29-Aug-19 14:55 32.938946 -117.281594 333 6006ft 98kts
29-Aug-19 14:56 32.968008 -117.297854 333 5883ft 117kts
29-Aug-19 14:57 32.995047 -117.313043 333 5998ft 109kts
29-Aug-19 14:58 33.023482 -117.329171 330 6006ft 112kts
29-Aug-19 14:59 33.051902 -117.345605 337 6009ft 113kts
29-Aug-19 15:00 33.081133 -117.358645 339 6009ft 111kts
29-Aug-19 15:01 33.109895 -117.370632 340 6007ft 110kts
29-Aug-19 15:02 33.138599 -117.382213 340 6005ft 110kts
29-Aug-19 15:03 33.167759 -117.393843 340 6004ft 110kts
29-Aug-19 15:04 33.196948 -117.405558 340 6000ft 110kts
29-Aug-19 15:05 33.226203 -117.417373 340 5998ft 110kts
29-Aug-19 15:06 33.251943 -117.435462 308 5994ft 109kts
29-Aug-19 15:07 33.272586 -117.462030 316 5992ft 109kts
29-Aug-19 15:08 33.296625 -117.485777 320 5990ft 110kts
29-Aug-19 15:09 33.320601 -117.508873 320 5989ft 110kts
29-Aug-19 15:10 33.342303 -117.534622 308 5986ft 109kts
29-Aug-19 15:11 33.362589 -117.562062 311 5985ft 109kts
29-Aug-19 15:12 33.383638 -117.588517 313 5983ft 110kts
29-Aug-19 15:13 33.405112 -117.614689 313 5982ft 110kts
29-Aug-19 15:14 33.424762 -117.642499 310 5980ft 109kts
29-Aug-19 15:15 33.446843 -117.668200 315 5981ft 110kts
29-Aug-19 15:16 33.470242 -117.691769 323 5980ft 110kts
29-Aug-19 15:17 33.494110 -117.714534 317 5979ft 109kts
29-Aug-19 15:18 33.515847 -117.740551 310 5978ft 109kts
29-Aug-19 15:19 33.536245 -117.767952 310 5978ft 109kts
29-Aug-19 15:20 33.556656 -117.795478 310 5977ft 108kts
29-Aug-19 15:21 33.576890 -117.822881 310 5977ft 108kts
29-Aug-19 15:22 33.597018 -117.850253 310 5977ft 108kts
29-Aug-19 15:23 33.617189 -117.877755 310 5979ft 109kts
29-Aug-19 15:24 33.637383 -117.905386 310 5979ft 109kts
29-Aug-19 15:25 33.657124 -117.932667 310 5405ft 105kts
29-Aug-19 15:26 33.676150 -117.959039 310 4703ft 104kts
29-Aug-19 15:27 33.694969 -117.985084 310 4005ft 103kts
29-Aug-19 15:28 33.713832 -118.011316 310 3303ft 103kts
29-Aug-19 15:29 33.731911 -118.036502 309 2841ft 86kts
29-Aug-19 15:30 33.747230 -118.061341 308 2444ft 94kts
29-Aug-19 15:31 33.764678 -118.085062 308 1905ft 97kts
29-Aug-19 15:32 33.781874 -118.107054 310 1224ft 83kts
29-Aug-19 15:33 33.796715 -118.125705 310 551ft 70kts
29-Aug-19 15:34 33.808928 -118.140623 306 131ft 59kts
29-Aug-19 15:35 33.814944 -118.149326 270 46ft 3kts
29-Aug-19 15:36 33.814945 -118.149483 270 46ft 0kts
29-Aug-19 15:37 33.814222 -118.148906 136 46ft 10kts
29-Aug-19 15:38 33.813085 -118.149560 269 46ft 10kts
29-Aug-19 15:39 33.812187 -118.151608 183 46ft 0kts

Navigation Log

Ident Type
Flight plan parsing failed, navigation log unavailable